Time;durP1;ratioP1;P1;durP2;ratioP2;P2;SDS_P1;SDS_P2;PMS_P1;PMS_P2;Temp;Humidity;BMP_temperature;BMP_pressure;BME280_temperature;BME280_humidity;BME280_pressure;Samples;Min_cycle;Max_cycle;Signal;HPM_P1;HPM_P2
2023/03/08 00:01:38;;;;;;;14.85;6.13;;;6.70;99.90;;;;;;5107010;28;20049;-69
2023/03/08 00:04:13;;;;;;;12.45;6.70;;;6.70;99.90;;;;;;5108619;28;20065;-69
2023/03/08 00:06:49;;;;;;;8.45;5.25;;;6.70;99.90;;;;;;5136310;28;20043;-69
2023/03/08 00:09:23;;;;;;;10.65;5.55;;;6.60;99.90;;;;;;5132062;28;20060;-68
2023/03/08 00:11:55;;;;;;;10.65;5.93;;;6.60;99.90;;;;;;5100568;28;20055;-68
2023/03/08 00:14:26;;;;;;;11.95;6.60;;;6.50;99.90;;;;;;5081075;29;20387;-68
2023/03/08 00:17:03;;;;;;;8.38;4.97;;;6.60;99.90;;;;;;5079694;29;20052;-68
2023/03/08 00:19:35;;;;;;;9.43;5.07;;;6.60;99.90;;;;;;5111825;28;20386;-69
2023/03/08 00:22:07;;;;;;;9.25;5.55;;;6.60;99.90;;;;;;5112848;28;20497;-67
2023/03/08 00:24:40;;;;;;;13.05;4.93;;;6.60;99.90;;;;;;5129871;28;20206;-66
2023/03/08 00:27:15;;;;;;;11.40;5.05;;;6.60;99.90;;;;;;5109224;28;20055;-67
2023/03/08 00:29:50;;;;;;;11.45;5.20;;;6.60;99.90;;;;;;5143511;28;20047;-68
2023/03/08 00:32:25;;;;;;;8.77;4.78;;;6.60;99.90;;;;;;5094757;29;20299;-69
2023/03/08 00:35:01;;;;;;;7.75;4.50;;;6.60;99.90;;;;;;5111281;28;20046;-68
2023/03/08 00:37:33;;;;;;;10.82;4.60;;;6.60;99.90;;;;;;5111582;29;20043;-66
2023/03/08 00:40:06;;;;;;;6.53;4.20;;;6.70;99.90;;;;;;5136458;28;20236;-68
2023/03/08 00:42:42;;;;;;;7.22;4.32;;;6.70;99.90;;;;;;5114068;28;20046;-68
2023/03/08 00:45:21;;;;;;;7.78;4.20;;;6.70;99.90;;;;;;5109072;28;20039;-68
2023/03/08 00:47:57;;;;;;;6.70;3.60;;;6.60;99.90;;;;;;5111364;28;20050;-68
2023/03/08 00:50:34;;;;;;;7.55;4.30;;;6.60;99.90;;;;;;5111799;28;20047;-68
2023/03/08 00:53:08;;;;;;;10.02;4.88;;;6.60;99.90;;;;;;5129488;28;20207;-70
2023/03/08 00:55:52;;;;;;;8.55;4.50;;;6.60;99.90;;;;;;5130476;28;20035;-68
2023/03/08 00:58:27;;;;;;;5.05;3.65;;;6.60;99.90;;;;;;5094931;28;20039;-69
2023/03/08 01:03:42;;;;;;;5.47;3.60;;;6.50;99.90;;;;;;5147867;28;20061;-69
2023/03/08 01:06:14;;;;;;;;;;;6.50;99.90;;;;;;5101291;28;20279;-69
2023/03/08 01:08:46;;;;;;;6.57;3.67;;;6.50;99.90;;;;;;5114084;28;20102;-67
2023/03/08 01:11:21;;;;;;;7.90;4.30;;;6.40;99.90;;;;;;5114399;28;20034;-69
2023/03/08 01:13:56;;;;;;;7.20;3.80;;;6.40;99.90;;;;;;5081563;28;20487;-69
2023/03/08 01:16:32;;;;;;;8.23;4.38;;;6.30;99.90;;;;;;5111985;28;20191;-68
2023/03/08 01:19:04;;;;;;;7.63;4.55;;;6.30;99.90;;;;;;5111629;28;20039;-68
2023/03/08 01:21:39;;;;;;;6.43;4.43;;;6.30;99.90;;;;;;5108781;29;20054;-69
2023/03/08 01:24:16;;;;;;;6.88;3.78;;;6.30;99.90;;;;;;5095133;29;20054;-69
2023/03/08 01:26:54;;;;;;;8.55;4.10;;;6.30;99.90;;;;;;5101726;28;20038;-68
2023/03/08 01:29:27;;;;;;;8.90;4.30;;;6.30;99.90;;;;;;5116221;28;20055;-68
2023/03/08 01:31:58;;;;;;;6.55;4.00;;;6.30;99.90;;;;;;5129491;28;20049;-68
2023/03/08 01:34:30;;;;;;;9.13;4.10;;;6.20;99.90;;;;;;5099150;28;20450;-68
2023/03/08 01:37:02;;;;;;;7.07;4.32;;;6.20;99.90;;;;;;5100062;28;20274;-67
2023/03/08 01:39:34;;;;;;;8.25;3.55;;;6.20;99.90;;;;;;5115170;28;20038;-69
2023/03/08 01:42:06;;;;;;;8.10;4.15;;;6.10;99.90;;;;;;5116703;28;20038;-68
2023/03/08 01:45:00;;;;;;;6.32;4.30;;;6.10;99.90;;;;;;5116541;28;20035;-68
2023/03/08 01:47:37;;;;;;;6.60;4.10;;;6.10;99.90;;;;;;5112826;28;20523;-70
2023/03/08 01:50:10;;;;;;;8.15;4.05;;;6.10;99.90;;;;;;5112493;28;20112;-68
2023/03/08 01:52:47;;;;;;;5.53;3.33;;;6.00;99.90;;;;;;5127129;28;20027;-66
2023/03/08 01:55:21;;;;;;;7.43;4.13;;;5.90;99.90;;;;;;5114836;28;20268;-69
2023/03/08 01:57:55;;;;;;;5.68;3.72;;;5.90;99.90;;;;;;5115392;28;20057;-69
2023/03/08 02:00:27;;;;;;;9.30;4.00;;;5.90;99.90;;;;;;5112581;28;20035;-70
2023/03/08 02:03:07;;;;;;;6.60;4.25;;;5.90;99.90;;;;;;5070907;28;20054;-69
2023/03/08 02:05:42;;;;;;;5.90;3.50;;;5.90;99.90;;;;;;5103567;28;20050;-70
2023/03/08 02:08:16;;;;;;;8.88;4.35;;;5.90;99.90;;;;;;5098759;28;20307;-69
2023/03/08 02:10:51;;;;;;;8.68;3.97;;;5.90;99.90;;;;;;5108709;29;20038;-69
2023/03/08 02:13:26;;;;;;;7.82;4.25;;;5.80;99.90;;;;;;5104617;28;20036;-69
2023/03/08 02:16:04;;;;;;;9.60;4.40;;;5.80;99.90;;;;;;5097752;28;20053;-68
2023/03/08 02:19:10;;;;;;;7.97;3.65;;;6.00;99.90;;;;;;5115919;28;20049;-69
2023/03/08 02:21:42;;;;;;;7.72;4.63;;;6.00;99.90;;;;;;5014873;29;20041;-68
2023/03/08 02:24:21;;;;;;;8.52;4.80;;;6.00;99.90;;;;;;5031567;29;20041;-69
2023/03/08 02:27:14;;;;;;;10.18;5.18;;;5.90;99.90;;;;;;5014492;29;20068;-68
2023/03/08 02:29:45;;;;;;;10.02;5.13;;;6.00;99.90;;;;;;5014806;29;20303;-68
2023/03/08 02:32:17;;;;;;;6.82;3.90;;;6.00;99.90;;;;;;5027774;29;20049;-70
2023/03/08 02:34:53;;;;;;;10.48;4.75;;;5.90;99.90;;;;;;5014372;29;20045;-70
2023/03/08 02:37:25;;;;;;;8.23;4.72;;;5.90;99.90;;;;;;5014899;29;20071;-68
2023/03/08 02:39:59;;;;;;;7.75;4.82;;;5.90;99.90;;;;;;5014893;29;20051;-70
2023/03/08 02:42:33;;;;;;;8.68;4.57;;;5.90;99.90;;;;;;4998753;29;20052;-69
2023/03/08 02:45:12;;;;;;;12.80;4.53;;;5.90;99.90;;;;;;5021050;29;20079;-71
2023/03/08 02:47:48;;;;;;;8.25;5.18;;;5.90;99.90;;;;;;5010711;29;20681;-66
2023/03/08 02:50:25;;;;;;;6.63;4.45;;;6.00;99.90;;;;;;4997550;29;20068;-68
2023/03/08 02:52:58;;;;;;;7.60;4.13;;;6.00;99.90;;;;;;5021142;29;20643;-67
2023/03/08 02:55:34;;;;;;;6.93;4.20;;;6.00;99.90;;;;;;5012925;29;20045;-68
2023/03/08 02:58:08;;;;;;;6.18;4.13;;;6.00;99.90;;;;;;5061270;28;20276;-67
2023/03/08 03:00:40;;;;;;;9.68;5.13;;;5.90;99.90;;;;;;5109819;28;20039;-69
2023/03/08 03:03:13;;;;;;;5.82;3.63;;;6.00;99.90;;;;;;5104161;29;20115;-68
2023/03/08 03:05:45;;;;;;;7.80;3.83;;;5.90;99.90;;;;;;5094382;28;20061;-69
2023/03/08 03:08:19;;;;;;;9.20;4.97;;;5.90;99.90;;;;;;5140120;28;20040;-68
2023/03/08 03:10:53;;;;;;;8.27;5.05;;;5.90;99.90;;;;;;5101610;28;20053;-70
2023/03/08 03:13:24;;;;;;;9.27;5.05;;;5.90;99.90;;;;;;5141032;28;20431;-67
2023/03/08 03:15:59;;;;;;;5.55;3.72;;;5.80;99.90;;;;;;5113511;28;20053;-68
2023/03/08 03:18:33;;;;;;;7.03;4.10;;;5.80;99.90;;;;;;5114559;28;20042;-68
2023/03/08 03:21:09;;;;;;;8.35;5.22;;;5.80;99.90;;;;;;5099016;28;20389;-68
2023/03/08 03:23:41;;;;;;;6.30;3.92;;;5.90;99.90;;;;;;5115858;28;20038;-68
2023/03/08 03:26:17;;;;;;;10.02;5.25;;;5.90;99.90;;;;;;5118512;28;20038;-68
2023/03/08 03:28:51;;;;;;;8.85;5.13;;;5.90;99.90;;;;;;5099942;28;20050;-68
2023/03/08 03:31:26;;;;;;;9.50;4.27;;;5.90;99.90;;;;;;5112924;28;20514;-67
2023/03/08 03:34:05;;;;;;;14.45;4.50;;;5.90;99.90;;;;;;5113743;28;20058;-67
2023/03/08 03:36:36;;;;;;;12.20;4.28;;;5.90;99.90;;;;;;5125929;28;20049;-68
2023/03/08 03:39:08;;;;;;;11.05;5.47;;;5.90;99.90;;;;;;5118636;28;20039;-68
2023/03/08 03:41:39;;;;;;;8.32;4.57;;;5.90;99.90;;;;;;5117586;28;20247;-67
2023/03/08 03:44:15;;;;;;;11.82;4.38;;;6.00;99.90;;;;;;5118331;28;20046;-68
2023/03/08 03:46:47;;;;;;;6.85;4.13;;;6.00;99.90;;;;;;5084295;28;20051;-67
2023/03/08 03:49:18;;;;;;;7.50;4.60;;;6.00;99.90;;;;;;5099202;28;20212;-67
2023/03/08 03:51:56;;;;;;;9.60;4.70;;;6.00;99.90;;;;;;5112999;28;20048;-67
2023/03/08 03:54:27;;;;;;;5.93;3.85;;;6.10;99.90;;;;;;5123321;28;20327;-68
2023/03/08 03:57:03;;;;;;;6.57;3.80;;;6.10;99.90;;;;;;5144691;28;20053;-68
2023/03/08 03:59:36;;;;;;;7.60;5.35;;;6.10;99.90;;;;;;5117074;28;20469;-67
2023/03/08 04:02:09;;;;;;;8.52;4.68;;;6.10;99.90;;;;;;5114548;28;20362;-68
2023/03/08 04:04:41;;;;;;;7.88;4.93;;;6.10;99.90;;;;;;5092187;28;20072;-66
2023/03/08 04:07:15;;;;;;;7.53;4.50;;;6.20;99.90;;;;;;5138453;28;20653;-67
2023/03/08 04:09:49;;;;;;;9.88;4.82;;;6.20;99.90;;;;;;5126934;28;20384;-69
2023/03/08 04:12:23;;;;;;;9.15;4.10;;;6.20;99.90;;;;;;5141777;28;20039;-68
2023/03/08 04:14:56;;;;;;;6.30;4.45;;;6.20;99.90;;;;;;5101822;28;20052;-67
2023/03/08 04:17:27;;;;;;;8.57;4.88;;;6.20;99.90;;;;;;5111804;28;20046;-67
2023/03/08 04:19:59;;;;;;;10.15;4.80;;;6.10;99.90;;;;;;5102490;28;20060;-66
2023/03/08 04:22:33;;;;;;;5.90;3.28;;;6.10;99.90;;;;;;5117851;28;20493;-68
2023/03/08 04:25:10;;;;;;;10.00;4.32;;;6.10;99.90;;;;;;5119259;28;20052;-66
2023/03/08 04:27:41;;;;;;;9.48;4.50;;;6.00;99.90;;;;;;5131343;28;20041;-69
2023/03/08 04:30:13;;;;;;;8.13;4.20;;;6.00;99.90;;;;;;5097224;28;20046;-65
2023/03/08 04:32:47;;;;;;;8.20;4.03;;;6.00;99.90;;;;;;5108629;28;20048;-66
2023/03/08 04:35:19;;;;;;;6.03;4.30;;;5.90;99.90;;;;;;5109796;28;20042;-68
2023/03/08 04:37:53;;;;;;;9.23;4.80;;;5.90;99.90;;;;;;5133776;28;20038;-68
2023/03/08 04:40:27;;;;;;;6.23;3.73;;;5.80;99.90;;;;;;5134478;28;20053;-67
2023/03/08 04:42:59;;;;;;;9.18;4.57;;;5.80;99.90;;;;;;5117817;28;20119;-68
2023/03/08 04:45:30;;;;;;;7.95;4.60;;;5.80;99.90;;;;;;5145693;28;20038;-68
2023/03/08 04:48:05;;;;;;;6.53;4.70;;;5.60;99.90;;;;;;5101424;28;20058;-67
2023/03/08 04:50:39;;;;;;;7.47;4.25;;;5.70;99.90;;;;;;5116825;28;20048;-67
2023/03/08 04:53:13;;;;;;;12.48;4.75;;;5.70;99.90;;;;;;5098242;28;20042;-69
2023/03/08 04:55:44;;;;;;;7.93;4.70;;;5.70;99.90;;;;;;5089000;28;20053;-68
2023/03/08 04:58:16;;;;;;;8.73;5.45;;;5.60;99.90;;;;;;5100327;28;20273;-67
2023/03/08 05:00:50;;;;;;;8.63;5.28;;;5.60;99.90;;;;;;5097467;28;20046;-68
2023/03/08 05:03:22;;;;;;;10.05;5.32;;;5.70;99.90;;;;;;5135957;28;20065;-68
2023/03/08 05:06:00;;;;;;;10.10;5.63;;;5.60;99.90;;;;;;5101974;28;20054;-68
2023/03/08 05:08:31;;;;;;;8.32;4.93;;;5.60;99.90;;;;;;5113905;28;20038;-68
2023/03/08 05:11:03;;;;;;;7.25;4.20;;;5.50;99.90;;;;;;5101306;28;20046;-68
2023/03/08 05:13:37;;;;;;;8.80;5.65;;;5.60;99.90;;;;;;5075307;29;20359;-68
2023/03/08 05:16:08;;;;;;;8.13;4.53;;;5.60;99.90;;;;;;5096100;28;20046;-68
2023/03/08 05:18:45;;;;;;;8.52;5.10;;;5.60;99.90;;;;;;5113403;28;20030;-66
2023/03/08 05:21:20;;;;;;;11.68;4.95;;;5.60;99.90;;;;;;5097755;28;20535;-68
2023/03/08 05:23:54;;;;;;;10.13;4.53;;;5.60;99.90;;;;;;5098237;28;20076;-67
2023/03/08 05:26:30;;;;;;;8.18;4.38;;;5.70;99.90;;;;;;5095978;28;20053;-66
2023/03/08 05:29:05;;;;;;;7.90;5.03;;;5.60;99.90;;;;;;5088445;28;20366;-69
2023/03/08 05:31:42;;;;;;;7.45;4.13;;;5.70;99.90;;;;;;5112869;28;20042;-67
2023/03/08 05:34:13;;;;;;;9.05;4.68;;;5.70;99.90;;;;;;5098169;28;20573;-69
2023/03/08 05:36:45;;;;;;;7.43;3.97;;;5.60;99.90;;;;;;5096250;28;20051;-67
2023/03/08 05:39:16;;;;;;;7.55;4.97;;;5.50;99.90;;;;;;5096992;28;20047;-69
2023/03/08 05:41:49;;;;;;;9.65;5.30;;;5.50;99.90;;;;;;5093688;28;20048;-68
2023/03/08 05:44:23;;;;;;;6.75;3.72;;;5.50;99.90;;;;;;5108497;28;20038;-70
2023/03/08 05:46:57;;;;;;;9.55;5.05;;;5.50;99.90;;;;;;5111057;28;20397;-69
2023/03/08 05:49:34;;;;;;;11.68;4.65;;;5.50;99.90;;;;;;5112641;28;20043;-68
2023/03/08 05:52:08;;;;;;;6.50;4.13;;;5.50;99.90;;;;;;5087994;28;20039;-68
2023/03/08 05:54:42;;;;;;;8.38;4.70;;;5.50;99.90;;;;;;5086138;28;20579;-68
2023/03/08 05:57:13;;;;;;;9.57;4.45;;;5.50;99.90;;;;;;5104021;29;20043;-68
2023/03/08 05:59:50;;;;;;;7.78;4.25;;;5.40;99.90;;;;;;5076763;28;20054;-68
2023/03/08 06:02:22;;;;;;;7.63;4.45;;;5.40;99.90;;;;;;5082426;28;20046;-69
2023/03/08 06:04:53;;;;;;;7.00;3.80;;;5.40;99.90;;;;;;5068904;28;20050;-69
2023/03/08 06:07:26;;;;;;;8.25;4.75;;;5.40;99.90;;;;;;5132158;28;20054;-68
2023/03/08 06:10:00;;;;;;;7.47;4.10;;;5.50;99.90;;;;;;5107790;28;20141;-68
2023/03/08 06:12:35;;;;;;;9.18;4.85;;;5.60;99.90;;;;;;5149533;28;20578;-67
2023/03/08 06:15:11;;;;;;;11.05;4.80;;;5.60;99.90;;;;;;5134899;28;20041;-69
2023/03/08 06:17:43;;;;;;;9.07;4.85;;;5.60;99.90;;;;;;5132242;28;20048;-67
2023/03/08 06:20:16;;;;;;;9.93;4.38;;;5.70;99.90;;;;;;5129414;28;20046;-67
2023/03/08 06:22:52;;;;;;;10.18;4.80;;;5.70;99.90;;;;;;5103104;28;20030;-67
2023/03/08 06:25:23;;;;;;;9.90;5.15;;;5.70;99.90;;;;;;5124153;28;20053;-69
2023/03/08 06:27:57;;;;;;;10.00;5.00;;;5.90;99.90;;;;;;5129039;28;20053;-67
2023/03/08 06:30:31;;;;;;;6.88;4.57;;;6.00;99.90;;;;;;5110282;28;20049;-71
2023/03/08 06:33:05;;;;;;;7.85;4.47;;;6.10;99.90;;;;;;5108981;28;20046;-68
2023/03/08 06:35:45;;;;;;;8.38;4.72;;;6.20;99.90;;;;;;5100753;28;20046;-68
2023/03/08 06:38:16;;;;;;;8.07;4.00;;;6.30;99.90;;;;;;5128859;28;20061;-68
2023/03/08 06:40:48;;;;;;;8.52;5.28;;;6.50;99.90;;;;;;5113476;28;20045;-68
2023/03/08 06:43:23;;;;;;;7.68;4.05;;;6.70;99.90;;;;;;5102798;28;20342;-68
2023/03/08 06:45:55;;;;;;;9.77;5.60;;;6.80;99.90;;;;;;5110643;28;20042;-67
2023/03/08 06:48:29;;;;;;;6.95;4.43;;;6.80;99.90;;;;;;5097626;28;20051;-67
2023/03/08 06:51:00;;;;;;;7.00;4.22;;;7.00;99.90;;;;;;5114081;28;20347;-68
2023/03/08 06:53:37;;;;;;;9.27;3.88;;;7.10;99.90;;;;;;5113078;28;20208;-68
2023/03/08 06:56:12;;;;;;;8.40;4.10;;;7.20;99.90;;;;;;5127275;28;20053;-68
2023/03/08 06:58:44;;;;;;;8.40;3.72;;;7.40;99.90;;;;;;5108054;28;20158;-65
2023/03/08 07:01:18;;;;;;;6.20;3.67;;;7.50;99.90;;;;;;5112184;28;20049;-68
2023/03/08 07:03:54;;;;;;;5.68;3.53;;;7.60;99.90;;;;;;5112538;28;20049;-69
2023/03/08 07:06:28;;;;;;;8.70;4.20;;;7.60;99.90;;;;;;5103302;28;20537;-69
2023/03/08 07:08:59;;;;;;;7.18;3.83;;;7.60;99.90;;;;;;5100086;28;20453;-69
2023/03/08 07:11:32;;;;;;;10.20;4.82;;;7.60;99.90;;;;;;5111644;28;20047;-66
2023/03/08 07:14:06;;;;;;;9.98;5.38;;;7.70;99.90;;;;;;5114144;28;20050;-68
2023/03/08 07:16:40;;;;;;;8.77;4.80;;;7.80;99.90;;;;;;5109711;28;20050;-69
2023/03/08 07:19:13;;;;;;;7.38;4.55;;;7.80;99.90;;;;;;5134031;28;20068;-68
2023/03/08 07:21:46;;;;;;;8.82;4.97;;;7.90;99.90;;;;;;5129547;28;20046;-66
2023/03/08 07:24:18;;;;;;;9.80;4.53;;;7.90;99.90;;;;;;5134594;28;20369;-68
2023/03/08 07:26:50;;;;;;;6.43;3.85;;;7.90;99.90;;;;;;5131103;28;20041;-65
2023/03/08 07:29:21;;;;;;;9.50;4.35;;;7.80;99.90;;;;;;5133609;28;20050;-67
2023/03/08 07:31:53;;;;;;;8.23;4.57;;;7.80;99.90;;;;;;5130865;28;20046;-67
2023/03/08 07:34:27;;;;;;;7.78;3.92;;;7.90;99.90;;;;;;5129345;28;20035;-68
2023/03/08 07:37:01;;;;;;;7.65;4.03;;;7.90;99.90;;;;;;5116817;28;20357;-67
2023/03/08 07:39:36;;;;;;;7.32;4.28;;;8.00;99.90;;;;;;5107189;28;20057;-67
2023/03/08 07:42:11;;;;;;;9.65;4.63;;;8.20;99.90;;;;;;5119442;28;20046;-68
2023/03/08 07:44:45;;;;;;;6.55;4.05;;;8.30;99.90;;;;;;5120343;28;20050;-68
2023/03/08 07:47:20;;;;;;;7.53;3.83;;;8.30;99.90;;;;;;5133991;28;20048;-69
2023/03/08 07:49:52;;;;;;;6.00;3.65;;;8.50;99.90;;;;;;5116621;28;20243;-69
2023/03/08 07:52:33;;;;;;;7.68;3.80;;;8.60;99.90;;;;;;5114818;28;20278;-69
2023/03/08 07:55:10;;;;;;;6.88;3.72;;;8.70;99.90;;;;;;5094703;28;20507;-68
2023/03/08 07:57:41;;;;;;;6.45;3.55;;;8.70;99.90;;;;;;5112960;28;20039;-68
2023/03/08 08:00:13;;;;;;;8.27;3.88;;;8.80;99.90;;;;;;5130285;28;20047;-69
2023/03/08 08:02:46;;;;;;;6.85;3.53;;;9.10;99.90;;;;;;5095282;28;20367;-69
2023/03/08 08:05:21;;;;;;;7.18;4.07;;;9.20;99.90;;;;;;5124678;28;20057;-67
2023/03/08 08:07:53;;;;;;;9.38;3.33;;;9.30;99.90;;;;;;5120471;28;20034;-70
2023/03/08 08:10:24;;;;;;;7.13;3.83;;;9.30;99.90;;;;;;5119059;28;20045;-70
2023/03/08 08:12:56;;;;;;;7.60;3.65;;;9.30;99.90;;;;;;5098510;28;20043;-68
2023/03/08 08:15:29;;;;;;;6.28;3.40;;;9.30;99.90;;;;;;5098399;28;20048;-69
2023/03/08 08:18:01;;;;;;;8.85;3.88;;;9.40;99.90;;;;;;5137693;28;20041;-67
2023/03/08 08:20:38;;;;;;;6.82;4.07;;;9.60;99.90;;;;;;5148967;28;20367;-69
2023/03/08 08:23:09;;;;;;;6.63;3.53;;;9.70;99.90;;;;;;5145539;28;20035;-69
2023/03/08 08:25:42;;;;;;;6.57;3.85;;;9.90;99.90;;;;;;5110531;28;20064;-69
2023/03/08 08:28:14;;;;;;;6.03;3.92;;;9.90;99.90;;;;;;5126030;28;20052;-68
2023/03/08 08:31:07;;;;;;;5.68;3.92;;;10.10;99.90;;;;;;5138347;28;20034;-70
2023/03/08 08:33:41;;;;;;;6.30;4.07;;;10.30;99.90;;;;;;5123854;28;20473;-66
2023/03/08 08:36:19;;;;;;;14.35;4.85;;;10.40;99.90;;;;;;5110713;28;20054;-68
2023/03/08 08:38:51;;;;;;;7.03;4.13;;;10.40;99.90;;;;;;5131696;28;20054;-69
2023/03/08 08:41:23;;;;;;;6.38;4.18;;;10.40;99.90;;;;;;5112357;28;20057;-68
2023/03/08 08:43:58;;;;;;;8.30;4.28;;;10.60;99.90;;;;;;5111508;28;20051;-68
2023/03/08 08:46:32;;;;;;;5.88;3.85;;;11.10;99.90;;;;;;5114126;28;20038;-69
2023/03/08 08:49:04;;;;;;;7.82;4.45;;;11.20;99.90;;;;;;5118236;28;20050;-69
2023/03/08 08:51:35;;;;;;;6.38;4.50;;;11.20;99.90;;;;;;5136024;28;20523;-72
2023/03/08 08:54:07;;;;;;;7.22;4.10;;;11.30;99.90;;;;;;5098123;28;20046;-69
2023/03/08 08:56:42;;;;;;;5.93;3.78;;;11.30;99.90;;;;;;5132459;28;20042;-70
2023/03/08 08:59:15;;;;;;;7.72;4.10;;;11.10;99.90;;;;;;5117682;28;20034;-70
2023/03/08 09:01:46;;;;;;;7.18;4.40;;;11.60;99.90;;;;;;5099222;28;20058;-69
2023/03/08 09:04:19;;;;;;;7.25;4.10;;;12.00;99.90;;;;;;5141502;28;20034;-69
2023/03/08 09:06:52;;;;;;;7.35;4.10;;;12.20;99.90;;;;;;5147691;28;20026;-69
2023/03/08 09:09:25;;;;;;;6.93;4.03;;;12.30;99.90;;;;;;5116368;28;20046;-67
2023/03/08 09:11:57;;;;;;;7.07;4.10;;;12.40;99.90;;;;;;5120079;28;20042;-68
2023/03/08 09:14:33;;;;;;;9.38;3.75;;;12.10;99.90;;;;;;5110576;28;20119;-66
2023/03/08 09:17:05;;;;;;;8.10;4.07;;;12.50;99.90;;;;;;5127546;28;20591;-69
2023/03/08 09:19:39;;;;;;;7.38;3.97;;;12.10;99.90;;;;;;5118169;28;20037;-69
2023/03/08 09:22:10;;;;;;;9.00;4.80;;;12.40;99.90;;;;;;5133103;28;20442;-69
2023/03/08 09:24:48;;;;;;;6.00;3.60;;;12.10;99.90;;;;;;5159806;28;20038;-68
2023/03/08 09:27:21;;;;;;;6.10;3.90;;;12.10;99.90;;;;;;5108590;28;20045;-69
2023/03/08 09:29:57;;;;;;;6.40;4.00;;;12.80;99.90;;;;;;5114330;28;20022;-68
2023/03/08 09:32:31;;;;;;;6.13;3.88;;;13.10;99.90;;;;;;5114140;28;20046;-68
2023/03/08 09:35:04;;;;;;;7.75;3.90;;;13.10;99.90;;;;;;5092725;28;20064;-68
2023/03/08 09:37:36;;;;;;;5.10;3.42;;;13.70;99.90;;;;;;5126813;28;20030;-70
2023/03/08 09:40:18;;;;;;;6.97;3.78;;;13.80;99.90;;;;;;5130219;28;20046;-67
2023/03/08 09:42:54;;;;;;;6.45;3.75;;;13.20;99.90;;;;;;5115823;28;20581;-69
2023/03/08 09:45:28;;;;;;;6.25;3.63;;;12.90;99.90;;;;;;5130965;28;20030;-69
2023/03/08 09:48:15;;;;;;;5.63;3.72;;;13.00;99.90;;;;;;5147692;28;20046;-69
2023/03/08 09:50:53;;;;;;;5.60;3.80;;;13.00;99.90;;;;;;5133566;28;20049;-69
2023/03/08 09:53:53;;;;;;;6.30;3.30;;;13.00;99.90;;;;;;5149483;28;20038;-68
2023/03/08 09:56:42;;;;;;;5.50;3.53;;;13.20;99.90;;;;;;5113688;28;20084;-70
2023/03/08 09:59:52;;;;;;;5.55;3.92;;;13.10;99.90;;;;;;5103104;28;20057;-68
2023/03/08 10:02:45;;;;;;;9.10;4.50;;;12.80;99.90;;;;;;5146312;28;20046;-68
2023/03/08 10:05:29;;;;;;;6.05;3.83;;;12.80;99.90;;;;;;5123379;28;20042;-69
2023/03/08 10:08:22;;;;;;;8.10;5.45;;;12.60;99.90;;;;;;5129470;28;20714;-67
2023/03/08 10:11:24;;;;;;;5.22;3.78;;;11.50;99.90;;;;;;5129140;28;20047;-69
2023/03/08 10:14:03;;;;;;;5.32;3.58;;;11.50;99.90;;;;;;5131096;28;20129;-68
2023/03/08 10:16:43;;;;;;;6.53;4.20;;;11.40;99.90;;;;;;5101613;28;20059;-66
2023/03/08 10:19:22;;;;;;;9.45;5.10;;;11.20;99.90;;;;;;5095369;28;20328;-68
2023/03/08 10:21:56;;;;;;;10.18;5.47;;;11.20;99.90;;;;;;5099670;28;20045;-69
2023/03/08 10:24:48;;;;;;;9.27;6.00;;;11.50;99.90;;;;;;5107188;28;20614;-69
2023/03/08 10:27:34;;;;;;;12.50;5.55;;;11.70;99.90;;;;;;5136617;28;20569;-68
2023/03/08 10:30:21;;;;;;;8.50;5.10;;;11.30;99.90;;;;;;5119804;28;20440;-72
2023/03/08 10:33:01;;;;;;;12.00;5.95;;;11.40;99.90;;;;;;5124502;28;20038;-69
2023/03/08 10:35:54;;;;;;;16.33;6.18;;;11.40;99.90;;;;;;5133143;28;20044;-69
2023/03/08 10:38:29;;;;;;;9.30;6.15;;;11.40;99.90;;;;;;5116081;28;20048;-69
2023/03/08 10:41:13;;;;;;;10.32;5.60;;;11.10;99.90;;;;;;5150357;28;20057;-70
2023/03/08 10:43:54;;;;;;;14.98;6.43;;;11.20;99.90;;;;;;5149698;28;20034;-70
2023/03/08 10:46:31;;;;;;;11.07;5.68;;;11.40;99.90;;;;;;5112712;28;20350;-68
2023/03/08 10:49:13;;;;;;;9.75;6.20;;;11.50;99.90;;;;;;5126230;28;20467;-67
2023/03/08 10:51:58;;;;;;;11.05;5.88;;;11.90;99.90;;;;;;5087349;28;20536;-66
2023/03/08 10:54:30;;;;;;;9.70;5.10;;;12.00;99.90;;;;;;5124799;28;20053;-67
2023/03/08 10:57:01;;;;;;;9.85;6.22;;;11.60;99.90;;;;;;5138973;28;20052;-69
2023/03/08 10:59:35;;;;;;;10.00;6.47;;;11.80;99.90;;;;;;5123148;28;20052;-68
2023/03/08 11:02:17;;;;;;;13.00;6.20;;;11.90;99.90;;;;;;5099854;28;20038;-67
2023/03/08 11:04:55;;;;;;;11.82;7.57;;;12.10;99.90;;;;;;5082352;29;20055;-68
2023/03/08 11:07:31;;;;;;;12.82;6.30;;;11.90;99.90;;;;;;5117749;28;20410;-68
2023/03/08 11:10:18;;;;;;;15.13;6.65;;;11.90;99.90;;;;;;5131783;28;20231;-68
2023/03/08 11:13:26;;;;;;;11.45;6.88;;;12.00;99.90;;;;;;5131713;28;20037;-68
2023/03/08 11:16:19;;;;;;;11.30;6.45;;;12.20;99.90;;;;;;5127461;28;20046;-68
2023/03/08 11:19:16;;;;;;;13.70;7.43;;;12.60;99.90;;;;;;5130214;28;20428;-69
2023/03/08 11:22:16;;;;;;;11.32;7.10;;;13.00;99.90;;;;;;5080469;28;20039;-69
2023/03/08 11:25:15;;;;;;;12.80;7.25;;;13.20;99.90;;;;;;5081490;28;20515;-68
2023/03/08 11:28:07;;;;;;;10.70;5.57;;;13.10;99.90;;;;;;5112764;28;20027;-66
2023/03/08 11:31:11;;;;;;;12.55;7.10;;;12.60;99.90;;;;;;5099654;28;20046;-69
2023/03/08 11:34:18;;;;;;;12.52;6.95;;;12.40;99.90;;;;;;5127547;28;20046;-68
2023/03/08 11:37:15;;;;;;;9.80;5.97;;;12.50;99.90;;;;;;5122282;28;20050;-66
2023/03/08 11:40:13;;;;;;;14.93;7.13;;;12.30;99.90;;;;;;5104611;28;20239;-69
2023/03/08 11:43:06;;;;;;;14.45;7.97;;;12.50;99.90;;;;;;5129409;28;20038;-69
2023/03/08 11:46:17;;;;;;;8.75;5.93;;;12.40;99.90;;;;;;5096480;28;20061;-67
2023/03/08 11:49:13;;;;;;;11.00;6.55;;;11.80;99.90;;;;;;5095892;28;20077;-67
2023/03/08 11:52:20;;;;;;;12.65;7.78;;;11.80;99.90;;;;;;5127258;28;20053;-69
2023/03/08 11:55:11;;;;;;;8.35;5.93;;;11.70;99.90;;;;;;5144341;28;20046;-68
2023/03/08 11:57:51;;;;;;;10.52;6.18;;;11.80;99.90;;;;;;5115719;28;20041;-68
2023/03/08 12:00:35;;;;;;;10.77;6.35;;;11.80;99.90;;;;;;5148744;28;20038;-69
2023/03/08 12:03:24;;;;;;;;;;;11.70;99.90;;;;;;5129561;28;20053;-67
2023/03/08 12:06:09;;;;;;;12.43;6.53;;;11.60;99.90;;;;;;5109279;28;19927;-68
2023/03/08 12:08:54;;;;;;;14.90;7.05;;;11.20;99.90;;;;;;5124402;28;20037;-68
2023/03/08 12:11:40;;;;;;;10.95;6.80;;;10.90;99.90;;;;;;5118766;28;20045;-67
2023/03/08 12:14:31;;;;;;;11.07;6.53;;;10.90;99.90;;;;;;5115550;28;20050;-67
2023/03/08 12:17:25;;;;;;;8.02;5.97;;;10.80;99.90;;;;;;5130233;28;20037;-67
2023/03/08 12:19:57;;;;;;;9.67;6.10;;;10.60;99.90;;;;;;5125268;28;20043;-66
2023/03/08 12:23:09;;;;;;;14.57;7.47;;;10.50;99.90;;;;;;5099936;28;20265;-68
2023/03/08 12:25:46;;;;;;;13.52;7.15;;;10.60;99.90;;;;;;5117452;28;20049;-70
2023/03/08 12:28:31;;;;;;;14.23;6.65;;;10.60;99.90;;;;;;5101166;28;20050;-68
2023/03/08 12:31:26;;;;;;;15.32;7.63;;;10.60;99.90;;;;;;5113527;28;20173;-66
2023/03/08 12:33:59;;;;;;;15.88;8.60;;;10.50;99.90;;;;;;5135079;28;20039;-67
2023/03/08 12:36:57;;;;;;;13.32;6.25;;;10.50;99.90;;;;;;5118562;28;20039;-71
2023/03/08 12:39:35;;;;;;;14.75;7.05;;;10.30;99.90;;;;;;5130828;28;20061;-65
2023/03/08 12:42:10;;;;;;;14.00;7.13;;;10.30;99.90;;;;;;5135017;28;20038;-67
2023/03/08 12:44:44;;;;;;;;;;;10.30;99.90;;;;;;5135139;28;20054;-66
2023/03/08 12:47:22;;;;;;;14.68;8.25;;;10.50;99.90;;;;;;5133805;28;19918;-66
2023/03/08 12:49:55;;;;;;;12.75;7.28;;;10.50;99.90;;;;;;5109417;28;20049;-68
2023/03/08 12:52:34;;;;;;;19.33;7.72;;;10.60;99.90;;;;;;5119282;28;20031;-67
2023/03/08 12:55:30;;;;;;;15.00;7.75;;;10.80;99.90;;;;;;5119080;28;20389;-68
2023/03/08 12:58:03;;;;;;;12.02;7.10;;;11.20;99.90;;;;;;5110091;28;20043;-68
2023/03/08 13:00:42;;;;;;;13.10;7.60;;;11.10;99.90;;;;;;5129403;28;20027;-69
2023/03/08 13:03:14;;;;;;;17.70;8.35;;;11.00;99.90;;;;;;5102963;28;20054;-68
2023/03/08 13:05:49;;;;;;;13.43;7.82;;;10.80;99.90;;;;;;5104939;28;20058;-66
2023/03/08 13:08:27;;;;;;;13.98;7.50;;;10.80;99.90;;;;;;5085402;28;20061;-69
2023/03/08 13:11:12;;;;;;;11.70;6.70;;;10.60;99.90;;;;;;5128056;28;20039;-68
2023/03/08 13:13:57;;;;;;;14.43;7.25;;;10.50;99.90;;;;;;5132534;28;20039;-69
2023/03/08 13:16:36;;;;;;;12.32;6.60;;;10.20;99.90;;;;;;5132049;28;20038;-68
2023/03/08 13:19:10;;;;;;;14.20;7.78;;;10.30;99.90;;;;;;5117884;28;20050;-68
2023/03/08 13:22:10;;;;;;;14.15;8.07;;;10.30;99.90;;;;;;5139464;28;20042;-65
2023/03/08 13:24:49;;;;;;;16.65;7.95;;;10.70;99.90;;;;;;5089333;28;20604;-66
2023/03/08 13:27:46;;;;;;;16.63;7.28;;;10.90;99.90;;;;;;5108122;28;20039;-70
2023/03/08 13:30:34;;;;;;;15.90;8.38;;;11.00;99.90;;;;;;5077892;28;20035;-70
2023/03/08 13:33:16;;;;;;;16.10;8.35;;;11.50;99.90;;;;;;5115746;28;20045;-69
2023/03/08 13:36:37;;;;;;;12.15;7.20;;;11.80;99.90;;;;;;5105688;28;20646;-67
2023/03/08 13:39:25;;;;;;;20.00;9.50;;;11.90;99.90;;;;;;5099855;28;20057;-66
2023/03/08 13:42:11;;;;;;;18.02;8.90;;;12.20;99.90;;;;;;5101838;28;20267;-67
2023/03/08 13:44:43;;;;;;;15.88;9.05;;;12.40;99.90;;;;;;5102529;28;20049;-67
2023/03/08 13:47:29;;;;;;;15.02;8.23;;;12.60;99.90;;;;;;5127180;28;20284;-68